createdAt,value
2022-12-18T06:36:54.130Z,98230.22
2022-12-18T06:39:22.125Z,98234.88
2022-12-18T06:46:48.059Z,98242.50
2022-12-18T06:49:18.091Z,98260.41
2022-12-18T06:51:45.770Z,98263.50
2022-12-18T06:54:15.066Z,98271.03
2022-12-18T06:56:42.725Z,98269.59
2022-12-18T06:59:10.416Z,98263.84
2022-12-18T07:01:38.220Z,98271.75
2022-12-18T07:04:05.996Z,98265.72
2022-12-18T07:06:33.643Z,98266.38
2022-12-18T07:09:03.595Z,98267.09
2022-12-18T07:11:33.710Z,98270.75
2022-12-18T07:14:01.391Z,98277.53
2022-12-18T07:16:32.168Z,98277.34
2022-12-18T07:18:59.854Z,98283.81
2022-12-18T07:21:27.585Z,98275.63
2022-12-18T07:23:55.291Z,98274.59
2022-12-18T07:26:23.315Z,98266.06
2022-12-18T07:28:51.078Z,98264.72
2022-12-18T07:31:21.437Z,98261.00
2022-12-18T07:33:49.715Z,98266.59
2022-12-18T07:36:17.363Z,98260.00
2022-12-18T07:38:48.127Z,98255.47
2022-12-18T07:41:16.043Z,98258.50
2022-12-18T07:43:44.122Z,98264.13
2022-12-18T07:46:20.011Z,98261.81
2022-12-18T07:48:49.779Z,98264.97
2022-12-18T07:51:18.403Z,98262.22
2022-12-18T07:53:46.136Z,98265.00
2022-12-18T07:56:31.164Z,98271.47
2022-12-18T07:59:00.108Z,98269.53
2022-12-18T08:01:31.208Z,98269.50
2022-12-18T08:03:59.494Z,98268.19
2022-12-18T08:06:27.125Z,98267.84
2022-12-18T08:08:58.089Z,98271.97
2022-12-18T08:11:27.278Z,98273.75
2022-12-18T08:13:54.975Z,98284.06
2022-12-18T08:16:23.010Z,98279.94
2022-12-18T08:18:53.136Z,98282.84
2022-12-18T08:21:25.996Z,98290.91
2022-12-18T08:23:54.602Z,98285.81
2022-12-18T08:26:23.809Z,98288.75
2022-12-18T08:28:51.850Z,98289.00
2022-12-18T08:31:19.962Z,98300.34
2022-12-18T08:33:52.671Z,98306.66
2022-12-18T08:36:22.885Z,98298.94
2022-12-18T08:38:51.056Z,98302.47
2022-12-18T08:41:19.331Z,98304.56
2022-12-18T08:44:06.855Z,98299.13
2022-12-18T08:46:39.315Z,98304.91
2022-12-18T08:49:07.735Z,98304.84
2022-12-18T08:51:35.404Z,98296.22
2022-12-18T08:54:03.468Z,98307.31
2022-12-18T08:56:34.469Z,98299.69
2022-12-18T08:59:02.219Z,98300.78
2022-12-18T09:01:35.673Z,98310.63
2022-12-18T09:04:03.612Z,98310.06
2022-12-18T09:06:32.110Z,98313.50
2022-12-18T09:08:59.863Z,98321.16
2022-12-18T09:11:28.472Z,98319.00
2022-12-18T09:13:56.688Z,98317.88
2022-12-18T09:16:31.514Z,98323.25
2022-12-18T09:19:03.055Z,98318.38
2022-12-18T09:21:36.854Z,98325.69
2022-12-18T09:24:07.053Z,98322.44
2022-12-18T09:26:36.889Z,98320.44
2022-12-18T09:29:04.919Z,98316.41
2022-12-18T09:31:32.651Z,98315.94
2022-12-18T09:34:00.278Z,98317.31
2022-12-18T09:36:28.008Z,98312.03
2022-12-18T09:38:55.824Z,98321.63
2022-12-18T09:41:38.867Z,98314.59
2022-12-18T09:44:12.637Z,98319.22
2022-12-18T09:46:44.107Z,98328.59
2022-12-18T09:49:17.337Z,98324.19
2022-12-18T09:51:58.034Z,98330.19
2022-12-18T09:54:27.843Z,98328.69
2022-12-18T09:56:55.815Z,98330.13
2022-12-18T09:59:28.403Z,98329.66
2022-12-18T10:01:56.535Z,98330.81
2022-12-18T10:04:25.708Z,98324.31
2022-12-18T10:07:02.025Z,98328.31
2022-12-18T10:10:09.027Z,98332.06
2022-12-18T10:12:46.422Z,98335.88
2022-12-18T10:15:20.240Z,98331.66
2022-12-18T10:18:22.066Z,98333.28
2022-12-18T10:20:51.517Z,98339.56
2022-12-18T10:23:32.644Z,98338.19
2022-12-18T10:26:02.475Z,98336.75
2022-12-18T10:28:36.431Z,98340.72
2022-12-18T10:31:06.941Z,98334.19
2022-12-18T10:33:34.846Z,98342.03
2022-12-18T10:36:02.876Z,98343.38
2022-12-18T10:38:32.972Z,98347.16
2022-12-18T10:41:21.797Z,98351.56
2022-12-18T10:43:52.283Z,98343.31
2022-12-18T10:46:23.022Z,98339.59
2022-12-18T10:48:55.677Z,98338.59
2022-12-18T10:51:31.405Z,98339.59
2022-12-18T10:54:28.881Z,98339.09
2022-12-18T10:57:15.483Z,98343.97
2022-12-18T10:59:54.787Z,98336.91
2022-12-18T11:02:36.058Z,98333.34
2022-12-18T11:05:07.268Z,98326.63
2022-12-18T11:07:50.498Z,98331.34
2022-12-18T11:10:20.312Z,98322.47
2022-12-18T11:12:48.339Z,98327.91
2022-12-18T11:15:25.880Z,98324.44
2022-12-18T11:17:53.613Z,98331.53
2022-12-18T11:20:31.296Z,98327.72
2022-12-18T11:23:06.735Z,98327.88
2022-12-18T11:25:36.399Z,98323.56
2022-12-18T11:28:06.337Z,98318.91
2022-12-18T11:30:36.627Z,98322.19
2022-12-18T11:33:15.929Z,98321.53
2022-12-18T11:35:59.568Z,98332.94
2022-12-18T11:38:35.602Z,98320.38
2022-12-18T11:41:49.966Z,98314.81
2022-12-18T11:44:30.433Z,98327.19
2022-12-18T11:47:20.353Z,98323.31
2022-12-18T11:49:50.435Z,98314.44
2022-12-18T11:52:21.241Z,98318.75
2022-12-18T11:54:52.413Z,98313.25
2022-12-18T11:57:36.081Z,98317.97
2022-12-18T12:00:12.864Z,98315.41
2022-12-18T12:03:14.625Z,98321.63
2022-12-18T12:06:06.856Z,98319.63
2022-12-18T12:09:05.116Z,98318.69
2022-12-18T12:11:45.282Z,98320.50
2022-12-18T12:14:34.679Z,98318.34
2022-12-18T12:17:10.587Z,98319.50
2022-12-18T12:20:07.492Z,98326.16
2022-12-18T12:22:42.793Z,98338.59
2022-12-18T12:25:18.636Z,98337.94
2022-12-18T12:28:10.243Z,98334.44
2022-12-18T12:30:40.767Z,98328.16
2022-12-18T12:33:23.642Z,98327.94
2022-12-18T12:36:04.624Z,98317.81
2022-12-18T12:38:49.817Z,98320.31
2022-12-18T12:41:43.819Z,98313.34
2022-12-18T12:44:18.363Z,98319.25
2022-12-18T12:46:46.718Z,98325.41
2022-12-18T12:49:16.786Z,98314.88
2022-12-18T12:51:51.513Z,98317.94
2022-12-18T12:54:22.580Z,98324.03
2022-12-18T12:56:59.074Z,98336.28
2022-12-18T12:59:39.560Z,98345.09
2022-12-18T13:02:30.378Z,98347.03
2022-12-18T13:05:02.357Z,98342.47
2022-12-18T13:07:37.155Z,98342.28
2022-12-18T13:10:31.378Z,98345.25
2022-12-18T13:13:10.728Z,98350.19
2022-12-18T13:15:42.728Z,98355.28
2022-12-18T13:18:10.845Z,98347.50
2022-12-18T13:20:52.243Z,98354.94
2022-12-18T13:23:26.227Z,98360.53
2022-12-18T13:25:58.135Z,98362.25
2022-12-18T13:28:34.828Z,98365.09
2022-12-18T13:31:02.799Z,98362.66
2022-12-18T13:33:30.776Z,98369.25
2022-12-18T13:36:14.785Z,98373.78
2022-12-18T13:38:43.263Z,98373.47
2022-12-18T13:41:14.484Z,98379.66
2022-12-18T13:43:50.860Z,98379.97
2022-12-18T13:46:21.713Z,98381.16
2022-12-18T13:49:06.359Z,98382.72
2022-12-18T13:51:34.905Z,98380.69
2022-12-18T13:54:32.446Z,98393.34
2022-12-18T13:57:00.223Z,98396.91
2022-12-18T13:59:37.651Z,98391.66
2022-12-18T14:02:15.571Z,98393.34
2022-12-18T14:04:46.239Z,98396.78
2022-12-18T14:07:19.504Z,98396.09
2022-12-18T14:10:01.935Z,98392.78
2022-12-18T14:12:59.181Z,98396.25
2022-12-18T14:15:38.223Z,98389.50
2022-12-18T14:18:35.060Z,98393.78
2022-12-18T14:21:03.536Z,98399.81
2022-12-18T14:23:35.849Z,98394.72
2022-12-18T14:26:06.237Z,98389.38
2022-12-18T14:28:36.304Z,98393.09
2022-12-18T14:31:03.918Z,98395.72
2022-12-18T14:33:31.592Z,98392.03
2022-12-18T14:36:05.034Z,98403.31
2022-12-18T14:38:36.257Z,98408.56
2022-12-18T14:41:04.760Z,98414.22
2022-12-18T14:43:37.750Z,98411.88
2022-12-18T14:46:09.813Z,98418.22
2022-12-18T14:48:43.838Z,98418.66
2022-12-18T14:51:11.596Z,98418.78
2022-12-18T14:53:41.883Z,98422.50
2022-12-18T14:56:31.797Z,98425.69
2022-12-18T14:59:04.560Z,98424.19
2022-12-18T15:01:46.534Z,98414.03
2022-12-18T15:04:37.034Z,98424.31
2022-12-18T15:07:08.085Z,98435.47
2022-12-18T15:09:38.076Z,98434.78
2022-12-18T15:12:27.359Z,98444.41
2022-12-18T15:14:55.046Z,98437.56
2022-12-18T15:17:24.137Z,98443.84
2022-12-18T15:19:54.965Z,98450.88
2022-12-18T15:22:29.591Z,98452.78
2022-12-18T15:24:58.436Z,98453.06
2022-12-18T15:27:41.600Z,98451.69
2022-12-18T15:30:09.220Z,98441.41
2022-12-18T15:32:37.757Z,98441.41
2022-12-18T15:35:15.597Z,98444.41
2022-12-18T15:37:43.566Z,98442.75
2022-12-18T15:40:18.525Z,98443.72
2022-12-18T15:43:08.628Z,98447.72
2022-12-18T15:45:36.595Z,98456.38
2022-12-18T15:48:21.971Z,98455.78
2022-12-18T15:50:53.457Z,98467.22
2022-12-18T15:53:24.708Z,98462.97
2022-12-18T15:56:10.841Z,98471.03
2022-12-18T15:58:38.615Z,98466.09
2022-12-18T16:01:06.419Z,98469.69
2022-12-18T16:03:34.554Z,98473.63
2022-12-18T16:06:04.119Z,98473.22
2022-12-18T16:08:32.156Z,98480.34
2022-12-18T16:10:59.922Z,98489.44
